createdAt,value
2018-09-05T00:00:01.877Z,17.79
2018-09-05T00:05:01.179Z,17.76
2018-09-05T00:10:01.463Z,17.76
2018-09-05T00:15:01.820Z,17.7
2018-09-05T00:20:01.171Z,17.69
2018-09-05T00:25:01.454Z,17.68
2018-09-05T00:30:01.748Z,17.66
2018-09-05T00:35:02.084Z,17.64
2018-09-05T00:40:01.602Z,17.61
2018-09-05T00:45:01.926Z,17.61
2018-09-05T00:50:01.173Z,17.56
2018-09-05T00:55:01.483Z,17.51
2018-09-05T01:00:01.770Z,17.48
2018-09-05T01:05:01.194Z,17.47
2018-09-05T01:10:02.066Z,17.47
2018-09-05T01:15:01.350Z,17.49
2018-09-05T01:20:01.725Z,17.45
2018-09-05T01:25:01.177Z,17.39
2018-09-05T01:30:01.416Z,17.37
2018-09-05T01:35:02.014Z,17.33
2018-09-05T01:40:01.402Z,17.28
2018-09-05T01:45:01.694Z,17.19
2018-09-05T01:50:01.992Z,17.16
2018-09-05T01:55:01.456Z,17.1
2018-09-05T02:00:01.712Z,17.1
2018-09-05T02:05:01.941Z,17.3
2018-09-05T02:10:01.285Z,17.28
2018-09-05T02:15:01.550Z,17.26
2018-09-05T02:20:01.955Z,17.15
2018-09-05T02:25:01.483Z,17.02
2018-09-05T02:30:01.922Z,16.96
2018-09-05T02:35:01.409Z,17.08
2018-09-05T02:40:01.640Z,16.91
2018-09-05T02:45:02.015Z,17.05
2018-09-05T02:50:01.260Z,16.78
2018-09-05T02:55:01.536Z,16.9
2018-09-05T03:00:01.825Z,16.76
2018-09-05T03:05:01.110Z,16.7
2018-09-05T03:10:01.378Z,16.76
2018-09-05T03:15:01.666Z,16.65
2018-09-05T03:20:02.035Z,16.71
2018-09-05T03:25:01.434Z,16.81
2018-09-05T03:30:01.712Z,16.92
2018-09-05T03:35:02.116Z,16.76
2018-09-05T03:40:01.555Z,16.71
2018-09-05T03:45:01.795Z,16.66
2018-09-05T03:50:01.108Z,16.84
2018-09-05T03:55:01.400Z,16.73
2018-09-05T04:00:01.663Z,16.65
2018-09-05T04:05:02.073Z,16.59
2018-09-05T04:10:01.618Z,16.57
2018-09-05T04:15:01.918Z,16.7
2018-09-05T04:20:01.181Z,16.69
2018-09-05T04:25:01.520Z,16.66
2018-09-05T04:30:02.030Z,16.59
2018-09-05T04:35:01.518Z,16.52
2018-09-05T04:40:01.830Z,16.47
2018-09-05T04:45:01.160Z,16.46
2018-09-05T04:50:01.632Z,16.55
2018-09-05T04:55:01.979Z,16.49
2018-09-05T05:00:01.230Z,16.43
2018-09-05T05:05:01.601Z,16.41
2018-09-05T05:10:01.997Z,16.6
2018-09-05T05:15:01.275Z,16.55
2018-09-05T05:20:01.628Z,16.58
2018-09-05T05:25:01.945Z,16.63
2018-09-05T05:30:01.211Z,16.65
2018-09-05T05:35:01.479Z,16.81
2018-09-05T05:40:01.829Z,16.76
2018-09-05T05:45:01.180Z,16.8
2018-09-05T05:50:01.543Z,16.82
2018-09-05T05:55:01.909Z,16.96
2018-09-05T06:00:01.354Z,17.08
2018-09-05T06:05:01.814Z,17.03
2018-09-05T06:10:01.187Z,17.11
2018-09-05T06:15:01.459Z,17.19
2018-09-05T06:20:01.848Z,17.3
2018-09-05T06:25:01.308Z,17.46
2018-09-05T06:30:01.655Z,17.55
2018-09-05T06:35:02.052Z,17.72
2018-09-05T06:40:01.463Z,17.82
2018-09-05T06:45:01.774Z,17.99
2018-09-05T06:50:01.318Z,18.17
2018-09-05T06:55:01.635Z,18.33
2018-09-05T07:00:01.999Z,18.52
2018-09-05T07:05:01.328Z,18.64
2018-09-05T07:10:01.730Z,18.89
2018-09-05T07:15:01.220Z,19.1
2018-09-05T07:20:01.507Z,19.58
2018-09-05T07:25:01.814Z,19.97
2018-09-05T07:30:01.490Z,20.24
2018-09-05T07:35:01.870Z,20.55
2018-09-05T07:40:01.265Z,20.69
2018-09-05T07:45:01.564Z,21.18
2018-09-05T07:50:01.895Z,21.5
2018-09-05T07:55:01.281Z,21.72
2018-09-05T08:00:01.551Z,22.13
2018-09-05T08:05:01.922Z,22.91
2018-09-05T08:10:01.296Z,23.1
2018-09-05T08:15:01.669Z,22.78
2018-09-05T08:20:01.988Z,23.49
2018-09-05T08:25:01.361Z,23.92
2018-09-05T08:30:01.736Z,24.34
2018-09-05T08:35:01.459Z,24.65
2018-09-05T08:40:01.772Z,24.82
2018-09-05T08:45:02.148Z,24.68
2018-09-05T08:50:02.041Z,24.74
2018-09-05T08:55:01.712Z,24.68
2018-09-05T09:00:02.015Z,24.5
2018-09-05T09:05:01.340Z,24.3
2018-09-05T09:10:02.063Z,23.47
2018-09-05T09:15:01.323Z,23.6
2018-09-05T09:20:01.596Z,23.77
2018-09-05T09:25:01.980Z,23.76
2018-09-05T09:30:01.237Z,23.51
2018-09-05T09:35:01.623Z,23.38
2018-09-05T09:40:01.078Z,23.54
2018-09-05T09:45:01.357Z,23.62
2018-09-05T09:50:01.743Z,23.67
2018-09-05T09:55:01.083Z,23.68
2018-09-05T10:00:01.339Z,23.88
2018-09-05T10:05:01.791Z,24.01
2018-09-05T10:10:01.373Z,24.06
2018-09-05T10:15:01.680Z,24.13
2018-09-05T10:20:01.363Z,24.28
2018-09-05T10:25:01.751Z,24.19
2018-09-05T10:30:02.066Z,24.41
2018-09-05T10:35:01.353Z,24.59
2018-09-05T10:40:01.649Z,24.87
2018-09-05T10:45:01.934Z,25.34
2018-09-05T10:50:01.172Z,25.62
2018-09-05T10:55:01.418Z,25.68
2018-09-05T11:00:01.775Z,25.23
2018-09-05T11:05:01.145Z,25.32
2018-09-05T11:10:01.401Z,25.48
2018-09-05T11:15:01.670Z,25.56
2018-09-05T11:20:01.980Z,25.3
2018-09-05T11:25:01.426Z,25.61
2018-09-05T11:30:01.754Z,25.83
2018-09-05T11:35:02.165Z,26.01
2018-09-05T11:40:01.610Z,25.83
2018-09-05T11:45:01.849Z,25.67
2018-09-05T11:50:01.098Z,25.68
2018-09-05T11:55:01.334Z,25.65
2018-09-05T12:00:01.698Z,25.99
2018-09-05T12:05:02.068Z,26.01
2018-09-05T12:10:01.672Z,26.11
2018-09-05T12:15:01.919Z,26.23
2018-09-05T12:20:01.227Z,26.31
2018-09-05T12:25:01.512Z,26.37
2018-09-05T12:30:01.759Z,26.31
2018-09-05T12:35:02.154Z,26.25
2018-09-05T12:40:01.595Z,26.11
2018-09-05T12:45:01.868Z,25.94
2018-09-05T12:50:01.134Z,25.84
2018-09-05T12:55:01.430Z,25.77
2018-09-05T13:00:01.693Z,25.74
2018-09-05T13:05:02.167Z,25.77
2018-09-05T13:10:01.763Z,25.99
2018-09-05T13:15:02.092Z,26.23
2018-09-05T13:20:01.436Z,26.25
2018-09-05T13:25:01.628Z,26.34
2018-09-05T13:30:01.892Z,26.4
2018-09-05T13:35:01.210Z,26.37
2018-09-05T13:40:01.513Z,26.49
2018-09-05T13:45:01.799Z,26.49
2018-09-05T13:50:01.374Z,26.56
2018-09-05T13:55:01.788Z,26.2
2018-09-05T14:00:02.064Z,26.12
2018-09-05T14:05:01.333Z,26.03
2018-09-05T14:10:01.731Z,26.11
2018-09-05T14:15:02.012Z,26.12
2018-09-05T14:20:01.271Z,26.22
2018-09-05T14:25:01.549Z,26.31
2018-09-05T14:30:01.818Z,26.28
2018-09-05T14:35:01.166Z,26.31
2018-09-05T14:40:01.532Z,26.32
2018-09-05T14:45:01.953Z,26.38
2018-09-05T14:50:01.237Z,26.46
2018-09-05T14:55:01.612Z,26.28
2018-09-05T15:00:01.860Z,26.09
2018-09-05T15:05:01.193Z,25.89
2018-09-05T15:10:01.448Z,25.77
2018-09-05T15:15:01.760Z,25.68
2018-09-05T15:20:02.129Z,25.6
2018-09-05T15:25:01.558Z,25.78
2018-09-05T15:30:01.959Z,25.69
2018-09-05T15:35:01.250Z,25.67
2018-09-05T15:40:01.541Z,25.64
2018-09-05T15:45:01.791Z,25.64
2018-09-05T15:50:02.198Z,25.59
2018-09-05T15:55:01.732Z,25.53
2018-09-05T16:00:01.997Z,25.42
2018-09-05T16:05:01.293Z,25.38
2018-09-05T16:10:01.677Z,25.28
2018-09-05T16:15:01.999Z,25.15
2018-09-05T16:20:01.372Z,25.02
2018-09-05T16:25:01.649Z,24.9
2018-09-05T16:30:01.935Z,24.82
2018-09-05T16:35:01.218Z,24.69
2018-09-05T16:40:01.547Z,24.59
2018-09-05T16:45:01.830Z,24.5
2018-09-05T16:50:01.106Z,24.39
2018-09-05T16:55:01.382Z,24.16
2018-09-05T17:00:01.658Z,24.04
2018-09-05T17:05:02.039Z,23.97
2018-09-05T17:10:01.468Z,23.89
2018-09-05T17:15:01.796Z,23.92
2018-09-05T17:20:01.096Z,23.8
2018-09-05T17:25:01.364Z,23.68
2018-09-05T17:30:01.650Z,23.55
2018-09-05T17:35:02.024Z,23.41
2018-09-05T17:40:01.461Z,23.32
2018-09-05T17:45:01.753Z,23.2
2018-09-05T17:50:02.053Z,23.14
2018-09-05T17:55:01.390Z,22.94
2018-09-05T18:00:01.693Z,22.77
2018-09-05T18:05:02.118Z,22.6
2018-09-05T18:10:01.690Z,22.41
2018-09-05T18:15:01.444Z,22.25
2018-09-05T18:20:01.813Z,22.11
2018-09-05T18:25:01.283Z,21.92
2018-09-05T18:30:01.593Z,21.87
2018-09-05T18:35:01.942Z,21.81
2018-09-05T18:40:01.310Z,21.74
2018-09-05T18:45:01.666Z,21.61
2018-09-05T18:50:01.970Z,21.42
2018-09-05T18:55:01.415Z,21.39
2018-09-05T19:00:01.995Z,21.28
2018-09-05T19:05:01.380Z,21.16
2018-09-05T19:10:01.794Z,21.03
2018-09-05T19:15:02.046Z,20.98
2018-09-05T19:20:01.344Z,20.79
2018-09-05T19:25:01.633Z,20.74
2018-09-05T19:30:01.984Z,20.63
2018-09-05T19:35:01.407Z,20.54
2018-09-05T19:40:01.847Z,20.44
2018-09-05T19:45:01.168Z,20.37
2018-09-05T19:50:01.462Z,20.35
2018-09-05T19:55:01.854Z,20.39
2018-09-05T20:00:01.248Z,20.29
2018-09-05T20:05:01.647Z,20.26
2018-09-05T20:10:02.072Z,20.17
2018-09-05T20:15:02.227Z,20.15
2018-09-05T20:20:01.754Z,20.1
2018-09-05T20:25:01.142Z,20.01
2018-09-05T20:30:01.517Z,19.97
2018-09-05T20:35:02.016Z,19.84
2018-09-05T20:40:01.466Z,19.77
2018-09-05T20:45:01.810Z,19.68
2018-09-05T20:50:01.196Z,19.62
2018-09-05T20:55:01.544Z,19.54
2018-09-05T21:00:01.888Z,19.44
2018-09-05T21:05:01.308Z,19.37
2018-09-05T21:10:01.803Z,19.33
2018-09-05T21:15:01.176Z,19.27
2018-09-05T21:20:01.430Z,19.18
2018-09-05T21:25:01.895Z,19.1
2018-09-05T21:30:01.254Z,18.92
2018-09-05T21:35:01.688Z,18.81
2018-09-05T21:40:02.198Z,18.7
2018-09-05T21:45:01.644Z,18.56
2018-09-05T21:50:02.037Z,18.48
2018-09-05T21:55:01.362Z,18.5
2018-09-05T22:00:01.764Z,18.41
2018-09-05T22:05:01.144Z,18.39
2018-09-05T22:10:01.460Z,18.36
2018-09-05T22:15:01.966Z,18.32
2018-09-05T22:20:01.387Z,18.32
2018-09-05T22:25:01.863Z,18.27
2018-09-05T22:30:01.258Z,18.28
2018-09-05T22:35:01.654Z,18.25
2018-09-05T22:40:02.047Z,18.22
2018-09-05T22:45:01.531Z,18.19
2018-09-05T22:50:01.928Z,18.14
2018-09-05T22:55:01.330Z,18.13
2018-09-05T23:00:01.705Z,18.11
2018-09-05T23:05:01.214Z,18.1
2018-09-05T23:10:01.504Z,18.1
2018-09-05T23:15:01.983Z,18.08
2018-09-05T23:20:01.290Z,18.07
2018-09-05T23:25:01.694Z,18.04
2018-09-05T23:30:02.186Z,18
2018-09-05T23:35:01.796Z,18.02
2018-09-05T23:40:01.188Z,18.03
2018-09-05T23:45:01.547Z,18.03
2018-09-05T23:50:02.224Z,17.97
2018-09-05T23:55:01.513Z,17.92
